createdAt,value
2023-04-18T00:01:04.744Z,62.31
2023-04-18T00:06:05.533Z,62.23
2023-04-18T00:11:02.135Z,62.34
2023-04-18T00:15:58.644Z,63.06
2023-04-18T00:20:55.151Z,63.13
2023-04-18T00:25:54.490Z,63.32
2023-04-18T00:30:51.018Z,63.18
2023-04-18T00:35:47.546Z,63.42
2023-04-18T00:40:44.022Z,63.60
2023-04-18T00:45:40.766Z,63.71
2023-04-18T00:50:37.682Z,63.85
2023-04-18T00:55:34.009Z,63.35
2023-04-18T01:00:30.859Z,63.97
2023-04-18T01:05:27.350Z,63.83
2023-04-18T01:10:23.865Z,63.98
2023-04-18T01:15:20.400Z,64.43
2023-04-18T01:20:17.018Z,64.32
2023-04-18T01:25:13.565Z,64.76
2023-04-18T01:30:10.607Z,65.03
2023-04-18T01:35:07.806Z,65.13
2023-04-18T01:40:05.901Z,65.06
2023-04-18T01:45:02.445Z,65.06
2023-04-18T01:49:58.937Z,64.94
2023-04-18T01:54:55.561Z,64.72
2023-04-18T01:59:52.054Z,65.07
2023-04-18T02:04:48.686Z,65.09
2023-04-18T02:09:45.213Z,65.06
2023-04-18T02:14:41.832Z,65.22
2023-04-18T02:19:38.369Z,65.50
2023-04-18T02:24:34.907Z,65.31
2023-04-18T02:29:31.873Z,65.67
2023-04-18T02:34:28.268Z,65.25
2023-04-18T02:39:24.804Z,65.38
2023-04-18T02:44:21.326Z,65.56
2023-04-18T02:49:17.911Z,65.82
2023-04-18T02:54:14.603Z,66.14
2023-04-18T02:59:11.186Z,65.79
2023-04-18T03:04:08.633Z,65.91
2023-04-18T03:09:05.187Z,65.95
2023-04-18T03:14:01.690Z,66.46
2023-04-18T03:18:58.153Z,66.15
2023-04-18T03:23:54.687Z,66.52
2023-04-18T03:28:51.146Z,66.71
2023-04-18T03:33:48.282Z,66.61
2023-04-18T03:38:44.972Z,66.19
2023-04-18T03:43:48.707Z,66.56
2023-04-18T03:48:45.156Z,66.53
2023-04-18T03:53:41.752Z,66.74
2023-04-18T03:58:38.264Z,66.57
2023-04-18T04:03:34.879Z,66.75
2023-04-18T04:08:31.522Z,66.94
2023-04-18T04:13:28.103Z,66.96
2023-04-18T04:18:30.838Z,66.94
2023-04-18T04:23:28.826Z,66.72
2023-04-18T04:28:34.969Z,67.14
2023-04-18T04:33:41.762Z,66.90
2023-04-18T04:38:56.516Z,66.76
2023-04-18T04:44:28.144Z,66.72
2023-04-18T04:49:50.572Z,67.10
2023-04-18T04:55:06.584Z,67.25
2023-04-18T05:00:18.494Z,67.06
2023-04-18T05:05:21.383Z,66.99
2023-04-18T05:10:17.907Z,67.10
2023-04-18T05:44:55.034Z,66.58
2023-04-18T05:57:05.081Z,65.26
2023-04-18T06:40:07.123Z,60.55
2023-04-18T10:47:05.514Z,55.54
2023-04-18T11:50:44.976Z,55.24
2023-04-18T15:03:16.012Z,53.75
2023-04-18T16:33:30.122Z,54.77
2023-04-18T16:43:37.724Z,55.23
2023-04-18T16:48:39.841Z,55.31
2023-04-18T16:53:45.053Z,55.24
2023-04-18T16:58:41.649Z,55.41
2023-04-18T17:09:58.773Z,55.78
2023-04-18T17:33:55.539Z,56.14
2023-04-18T17:51:38.095Z,56.60
2023-04-18T17:56:34.667Z,56.43
2023-04-18T18:01:34.935Z,56.68
2023-04-18T18:06:31.885Z,56.80
2023-04-18T18:11:28.479Z,57.09
2023-04-18T18:16:27.730Z,57.09
2023-04-18T18:21:24.745Z,57.59
2023-04-18T18:32:21.172Z,58.26
2023-04-18T18:37:18.333Z,58.00
2023-04-18T19:50:29.591Z,60.90
2023-04-18T20:00:36.964Z,60.87
2023-04-18T20:05:33.318Z,61.03
2023-04-18T20:10:30.265Z,61.23
2023-04-18T20:15:26.759Z,61.29
2023-04-18T20:20:23.385Z,61.26
2023-04-18T20:25:19.980Z,61.29
2023-04-18T20:30:16.461Z,61.32
2023-04-18T20:35:13.153Z,61.04
2023-04-18T20:40:09.822Z,61.43
2023-04-18T20:45:10.756Z,61.24
2023-04-18T20:50:08.144Z,61.77
2023-04-18T20:55:04.819Z,61.78
2023-04-18T21:00:01.335Z,61.87
2023-04-18T21:05:00.965Z,62.29
2023-04-18T21:09:57.466Z,62.22
2023-04-18T21:14:53.945Z,62.03
2023-04-18T21:19:50.576Z,61.83
2023-04-18T21:24:47.084Z,62.32
2023-04-18T21:29:43.569Z,61.93
2023-04-18T21:34:40.080Z,62.24
2023-04-18T21:39:38.049Z,62.09
2023-04-18T21:44:35.078Z,62.02
2023-04-18T21:49:31.935Z,62.22
2023-04-18T21:54:28.251Z,62.11
2023-04-18T21:59:24.709Z,61.87
2023-04-18T22:04:25.973Z,61.76
2023-04-18T22:09:22.958Z,61.70
2023-04-18T22:14:20.129Z,61.66
2023-04-18T22:19:17.084Z,62.00
2023-04-18T22:24:13.435Z,61.78
2023-04-18T22:29:12.911Z,61.99
2023-04-18T22:34:09.412Z,61.76
2023-04-18T22:39:06.151Z,62.20
2023-04-18T22:44:03.150Z,62.14
2023-04-18T22:48:59.619Z,61.87
2023-04-18T22:53:56.285Z,62.03
2023-04-18T22:58:52.767Z,62.06
2023-04-18T23:03:49.360Z,62.04
2023-04-18T23:08:45.883Z,62.27
2023-04-18T23:13:42.382Z,62.13
2023-04-18T23:18:38.893Z,61.69
2023-04-18T23:23:35.358Z,61.51
2023-04-18T23:28:32.792Z,61.57
2023-04-18T23:33:29.365Z,61.62
2023-04-18T23:38:26.220Z,61.15
2023-04-18T23:43:22.647Z,61.16
2023-04-18T23:48:19.123Z,61.31
2023-04-18T23:53:17.253Z,61.29
2023-04-18T23:58:14.226Z,61.18
